sensor_id;sensor_type;location;lat;lon;timestamp;P1;durP1;ratioP1;P2;durP2;ratioP2
53040;SDS011;39326;42.650;23.248;2022-10-16T00:01:05;7.00;;;6.40;;
53040;SDS011;39326;42.650;23.248;2022-10-16T00:03:36;7.43;;;6.40;;
53040;SDS011;39326;42.650;23.248;2022-10-16T00:06:03;7.47;;;6.47;;
53040;SDS011;39326;42.650;23.248;2022-10-16T00:08:30;6.80;;;6.20;;
53040;SDS011;39326;42.650;23.248;2022-10-16T00:11:03;7.13;;;6.33;;
53040;SDS011;39326;42.650;23.248;2022-10-16T00:13:29;8.63;;;6.53;;
53040;SDS011;39326;42.650;23.248;2022-10-16T00:15:56;7.80;;;6.50;;
53040;SDS011;39326;42.650;23.248;2022-10-16T00:18:22;7.70;;;7.00;;
53040;SDS011;39326;42.650;23.248;2022-10-16T00:20:49;8.70;;;7.10;;
53040;SDS011;39326;42.650;23.248;2022-10-16T00:23:14;7.47;;;6.77;;
53040;SDS011;39326;42.650;23.248;2022-10-16T00:25:40;7.97;;;6.63;;
53040;SDS011;39326;42.650;23.248;2022-10-16T00:28:06;6.80;;;6.10;;
53040;SDS011;39326;42.650;23.248;2022-10-16T00:30:32;7.40;;;6.67;;
53040;SDS011;39326;42.650;23.248;2022-10-16T00:32:58;7.83;;;6.83;;
53040;SDS011;39326;42.650;23.248;2022-10-16T00:35:24;7.13;;;6.40;;
53040;SDS011;39326;42.650;23.248;2022-10-16T00:37:50;7.60;;;6.90;;
53040;SDS011;39326;42.650;23.248;2022-10-16T00:40:17;6.93;;;6.23;;
53040;SDS011;39326;42.650;23.248;2022-10-16T00:42:42;6.57;;;5.97;;
53040;SDS011;39326;42.650;23.248;2022-10-16T00:45:09;8.80;;;7.03;;
53040;SDS011;39326;42.650;23.248;2022-10-16T00:47:39;7.10;;;5.70;;
53040;SDS011;39326;42.650;23.248;2022-10-16T00:50:13;7.50;;;6.30;;
53040;SDS011;39326;42.650;23.248;2022-10-16T00:52:48;7.07;;;6.47;;
53040;SDS011;39326;42.650;23.248;2022-10-16T00:55:15;6.70;;;6.00;;
53040;SDS011;39326;42.650;23.248;2022-10-16T00:57:42;6.83;;;6.13;;
53040;SDS011;39326;42.650;23.248;2022-10-16T01:00:10;6.57;;;6.00;;
53040;SDS011;39326;42.650;23.248;2022-10-16T01:02:38;7.83;;;7.13;;
53040;SDS011;39326;42.650;23.248;2022-10-16T01:05:05;7.83;;;6.63;;
53040;SDS011;39326;42.650;23.248;2022-10-16T01:10:23;7.60;;;6.53;;
53040;SDS011;39326;42.650;23.248;2022-10-16T01:12:57;7.30;;;6.60;;
53040;SDS011;39326;42.650;23.248;2022-10-16T01:18:39;6.57;;;5.80;;
53040;SDS011;39326;42.650;23.248;2022-10-16T01:21:35;7.10;;;6.07;;
53040;SDS011;39326;42.650;23.248;2022-10-16T01:24:12;6.60;;;5.93;;
53040;SDS011;39326;42.650;23.248;2022-10-16T01:32:18;7.13;;;5.87;;
53040;SDS011;39326;42.650;23.248;2022-10-16T01:35:02;7.97;;;6.37;;
53040;SDS011;39326;42.650;23.248;2022-10-16T01:40:11;6.67;;;5.70;;
53040;SDS011;39326;42.650;23.248;2022-10-16T01:42:39;6.60;;;5.97;;
53040;SDS011;39326;42.650;23.248;2022-10-16T01:45:10;6.00;;;5.40;;
53040;SDS011;39326;42.650;23.248;2022-10-16T01:47:38;6.20;;;5.60;;
53040;SDS011;39326;42.650;23.248;2022-10-16T01:50:06;6.03;;;5.13;;
53040;SDS011;39326;42.650;23.248;2022-10-16T01:52:39;6.23;;;5.63;;
53040;SDS011;39326;42.650;23.248;2022-10-16T01:55:09;7.10;;;5.80;;
53040;SDS011;39326;42.650;23.248;2022-10-16T01:57:38;7.10;;;6.40;;
53040;SDS011;39326;42.650;23.248;2022-10-16T02:00:10;6.47;;;5.50;;
53040;SDS011;39326;42.650;23.248;2022-10-16T02:02:40;7.00;;;5.73;;
53040;SDS011;39326;42.650;23.248;2022-10-16T02:05:13;6.10;;;5.50;;
53040;SDS011;39326;42.650;23.248;2022-10-16T02:07:44;6.00;;;5.50;;
53040;SDS011;39326;42.650;23.248;2022-10-16T02:10:11;6.07;;;5.47;;
53040;SDS011;39326;42.650;23.248;2022-10-16T02:12:38;6.00;;;5.40;;
53040;SDS011;39326;42.650;23.248;2022-10-16T02:15:08;6.70;;;5.93;;
53040;SDS011;39326;42.650;23.248;2022-10-16T02:17:34;6.77;;;6.07;;
53040;SDS011;39326;42.650;23.248;2022-10-16T02:20:00;7.37;;;6.10;;
53040;SDS011;39326;42.650;23.248;2022-10-16T02:22:28;6.67;;;5.93;;
53040;SDS011;39326;42.650;23.248;2022-10-16T02:25:01;7.00;;;6.40;;
53040;SDS011;39326;42.650;23.248;2022-10-16T02:30:12;7.50;;;6.67;;
53040;SDS011;39326;42.650;23.248;2022-10-16T02:32:44;7.23;;;6.53;;
53040;SDS011;39326;42.650;23.248;2022-10-16T02:35:13;7.70;;;7.00;;
53040;SDS011;39326;42.650;23.248;2022-10-16T02:37:40;7.27;;;6.67;;
53040;SDS011;39326;42.650;23.248;2022-10-16T02:40:07;8.47;;;7.67;;
53040;SDS011;39326;42.650;23.248;2022-10-16T02:42:34;8.43;;;7.63;;
53040;SDS011;39326;42.650;23.248;2022-10-16T02:45:03;8.20;;;7.30;;
53040;SDS011;39326;42.650;23.248;2022-10-16T02:47:30;8.53;;;7.73;;
53040;SDS011;39326;42.650;23.248;2022-10-16T02:49:55;9.57;;;8.10;;
53040;SDS011;39326;42.650;23.248;2022-10-16T02:52:21;8.87;;;7.63;;
53040;SDS011;39326;42.650;23.248;2022-10-16T02:54:47;8.63;;;7.80;;
53040;SDS011;39326;42.650;23.248;2022-10-16T02:57:13;8.23;;;7.37;;
53040;SDS011;39326;42.650;23.248;2022-10-16T02:59:38;8.57;;;7.83;;
53040;SDS011;39326;42.650;23.248;2022-10-16T03:02:04;9.80;;;8.40;;
53040;SDS011;39326;42.650;23.248;2022-10-16T03:04:30;10.97;;;8.27;;
53040;SDS011;39326;42.650;23.248;2022-10-16T03:06:56;12.40;;;9.63;;
53040;SDS011;39326;42.650;23.248;2022-10-16T03:09:22;9.00;;;8.00;;
53040;SDS011;39326;42.650;23.248;2022-10-16T03:11:48;9.73;;;8.77;;
53040;SDS011;39326;42.650;23.248;2022-10-16T03:14:14;8.57;;;7.57;;
53040;SDS011;39326;42.650;23.248;2022-10-16T03:16:39;9.43;;;8.40;;
53040;SDS011;39326;42.650;23.248;2022-10-16T03:19:06;9.33;;;8.33;;
53040;SDS011;39326;42.650;23.248;2022-10-16T03:21:32;10.23;;;9.03;;
53040;SDS011;39326;42.650;23.248;2022-10-16T03:23:59;9.00;;;8.20;;
53040;SDS011;39326;42.650;23.248;2022-10-16T03:26:24;9.47;;;8.53;;
53040;SDS011;39326;42.650;23.248;2022-10-16T03:28:50;8.47;;;7.67;;
53040;SDS011;39326;42.650;23.248;2022-10-16T03:31:16;8.77;;;7.50;;
53040;SDS011;39326;42.650;23.248;2022-10-16T03:33:42;7.83;;;6.97;;
53040;SDS011;39326;42.650;23.248;2022-10-16T03:36:08;8.47;;;7.77;;
53040;SDS011;39326;42.650;23.248;2022-10-16T03:38:33;8.03;;;7.30;;
53040;SDS011;39326;42.650;23.248;2022-10-16T03:40:59;8.40;;;7.60;;
53040;SDS011;39326;42.650;23.248;2022-10-16T03:43:25;8.87;;;7.87;;
53040;SDS011;39326;42.650;23.248;2022-10-16T03:45:51;8.43;;;7.70;;
53040;SDS011;39326;42.650;23.248;2022-10-16T03:48:18;8.27;;;7.47;;
53040;SDS011;39326;42.650;23.248;2022-10-16T03:50:44;9.17;;;8.33;;
53040;SDS011;39326;42.650;23.248;2022-10-16T03:53:09;10.00;;;8.97;;
53040;SDS011;39326;42.650;23.248;2022-10-16T03:55:35;10.23;;;9.37;;
53040;SDS011;39326;42.650;23.248;2022-10-16T03:58:01;10.70;;;9.77;;
53040;SDS011;39326;42.650;23.248;2022-10-16T04:00:27;10.97;;;9.50;;
53040;SDS011;39326;42.650;23.248;2022-10-16T04:02:53;9.70;;;8.70;;
53040;SDS011;39326;42.650;23.248;2022-10-16T04:05:19;9.90;;;8.90;;
53040;SDS011;39326;42.650;23.248;2022-10-16T04:07:45;11.03;;;10.07;;
53040;SDS011;39326;42.650;23.248;2022-10-16T04:10:11;10.17;;;9.27;;
53040;SDS011;39326;42.650;23.248;2022-10-16T04:12:37;10.30;;;9.40;;
53040;SDS011;39326;42.650;23.248;2022-10-16T04:15:03;10.77;;;9.77;;
53040;SDS011;39326;42.650;23.248;2022-10-16T04:17:29;9.60;;;8.60;;
53040;SDS011;39326;42.650;23.248;2022-10-16T04:19:55;10.90;;;9.80;;
53040;SDS011;39326;42.650;23.248;2022-10-16T04:22:21;11.87;;;10.13;;
53040;SDS011;39326;42.650;23.248;2022-10-16T04:24:47;10.47;;;9.37;;
53040;SDS011;39326;42.650;23.248;2022-10-16T04:27:13;9.97;;;9.03;;
53040;SDS011;39326;42.650;23.248;2022-10-16T04:29:39;13.67;;;10.93;;
53040;SDS011;39326;42.650;23.248;2022-10-16T04:32:05;16.40;;;14.90;;
53040;SDS011;39326;42.650;23.248;2022-10-16T04:34:33;27.77;;;25.17;;
53040;SDS011;39326;42.650;23.248;2022-10-16T04:36:59;50.70;;;46.40;;
53040;SDS011;39326;42.650;23.248;2022-10-16T04:39:25;42.57;;;38.97;;
53040;SDS011;39326;42.650;23.248;2022-10-16T04:41:51;33.03;;;29.97;;
53040;SDS011;39326;42.650;23.248;2022-10-16T04:44:17;26.17;;;23.87;;
53040;SDS011;39326;42.650;23.248;2022-10-16T04:46:43;18.17;;;16.63;;
53040;SDS011;39326;42.650;23.248;2022-10-16T04:49:09;16.03;;;14.43;;
53040;SDS011;39326;42.650;23.248;2022-10-16T04:51:35;13.47;;;12.23;;
53040;SDS011;39326;42.650;23.248;2022-10-16T04:54:01;11.17;;;10.07;;
53040;SDS011;39326;42.650;23.248;2022-10-16T04:56:27;11.60;;;10.60;;
53040;SDS011;39326;42.650;23.248;2022-10-16T04:58:53;11.93;;;10.83;;
53040;SDS011;39326;42.650;23.248;2022-10-16T05:01:19;11.17;;;9.60;;
53040;SDS011;39326;42.650;23.248;2022-10-16T05:03:45;10.77;;;9.67;;
53040;SDS011;39326;42.650;23.248;2022-10-16T05:06:10;11.53;;;10.47;;
53040;SDS011;39326;42.650;23.248;2022-10-16T05:08:36;10.83;;;9.70;;
53040;SDS011;39326;42.650;23.248;2022-10-16T05:11:02;9.70;;;8.70;;
53040;SDS011;39326;42.650;23.248;2022-10-16T05:13:29;12.83;;;9.83;;
53040;SDS011;39326;42.650;23.248;2022-10-16T05:15:54;11.17;;;9.97;;
53040;SDS011;39326;42.650;23.248;2022-10-16T05:18:20;9.67;;;8.83;;
53040;SDS011;39326;42.650;23.248;2022-10-16T05:20:46;10.07;;;8.97;;
53040;SDS011;39326;42.650;23.248;2022-10-16T05:23:12;9.63;;;8.60;;
53040;SDS011;39326;42.650;23.248;2022-10-16T05:25:38;9.73;;;8.83;;
53040;SDS011;39326;42.650;23.248;2022-10-16T05:28:03;13.13;;;11.73;;
53040;SDS011;39326;42.650;23.248;2022-10-16T05:30:29;17.03;;;15.23;;
53040;SDS011;39326;42.650;23.248;2022-10-16T05:32:55;14.70;;;13.07;;
53040;SDS011;39326;42.650;23.248;2022-10-16T05:35:20;12.33;;;11.20;;
53040;SDS011;39326;42.650;23.248;2022-10-16T05:37:47;12.30;;;10.90;;
53040;SDS011;39326;42.650;23.248;2022-10-16T05:40:13;11.33;;;10.33;;
53040;SDS011;39326;42.650;23.248;2022-10-16T05:42:39;12.07;;;10.87;;
53040;SDS011;39326;42.650;23.248;2022-10-16T05:45:05;13.93;;;11.13;;
53040;SDS011;39326;42.650;23.248;2022-10-16T05:47:32;12.77;;;11.47;;
53040;SDS011;39326;42.650;23.248;2022-10-16T05:49:57;11.40;;;10.30;;
53040;SDS011;39326;42.650;23.248;2022-10-16T05:52:23;12.17;;;10.90;;
53040;SDS011;39326;42.650;23.248;2022-10-16T05:54:48;10.93;;;9.90;;
53040;SDS011;39326;42.650;23.248;2022-10-16T05:57:14;10.60;;;9.70;;
53040;SDS011;39326;42.650;23.248;2022-10-16T05:59:40;11.30;;;10.17;;
53040;SDS011;39326;42.650;23.248;2022-10-16T06:02:05;10.90;;;9.80;;
53040;SDS011;39326;42.650;23.248;2022-10-16T06:04:30;10.13;;;9.10;;
53040;SDS011;39326;42.650;23.248;2022-10-16T06:06:59;10.37;;;9.47;;
53040;SDS011;39326;42.650;23.248;2022-10-16T06:09:27;11.90;;;10.67;;
53040;SDS011;39326;42.650;23.248;2022-10-16T06:11:53;11.47;;;10.27;;
53040;SDS011;39326;42.650;23.248;2022-10-16T06:14:18;10.87;;;9.93;;
53040;SDS011;39326;42.650;23.248;2022-10-16T06:16:44;12.20;;;10.47;;
53040;SDS011;39326;42.650;23.248;2022-10-16T06:19:10;11.17;;;10.07;;
53040;SDS011;39326;42.650;23.248;2022-10-16T06:21:35;11.40;;;10.37;;
53040;SDS011;39326;42.650;23.248;2022-10-16T06:24:00;11.23;;;10.23;;
53040;SDS011;39326;42.650;23.248;2022-10-16T06:26:27;11.50;;;10.40;;
53040;SDS011;39326;42.650;23.248;2022-10-16T06:28:55;11.23;;;10.13;;
53040;SDS011;39326;42.650;23.248;2022-10-16T06:31:21;12.83;;;11.73;;
53040;SDS011;39326;42.650;23.248;2022-10-16T06:33:50;12.80;;;11.60;;
53040;SDS011;39326;42.650;23.248;2022-10-16T06:36:16;13.07;;;11.87;;
53040;SDS011;39326;42.650;23.248;2022-10-16T06:38:43;13.60;;;12.17;;
53040;SDS011;39326;42.650;23.248;2022-10-16T06:41:11;12.77;;;11.60;;
53040;SDS011;39326;42.650;23.248;2022-10-16T06:43:38;12.13;;;11.13;;
53040;SDS011;39326;42.650;23.248;2022-10-16T06:46:04;10.93;;;9.93;;
53040;SDS011;39326;42.650;23.248;2022-10-16T06:48:32;13.80;;;11.97;;
53040;SDS011;39326;42.650;23.248;2022-10-16T06:51:06;14.10;;;12.67;;
53040;SDS011;39326;42.650;23.248;2022-10-16T06:53:40;13.63;;;12.33;;
53040;SDS011;39326;42.650;23.248;2022-10-16T06:56:11;14.77;;;13.33;;
53040;SDS011;39326;42.650;23.248;2022-10-16T06:58:47;15.40;;;13.77;;
53040;SDS011;39326;42.650;23.248;2022-10-16T07:01:14;15.47;;;13.73;;
53040;SDS011;39326;42.650;23.248;2022-10-16T07:03:41;15.03;;;13.57;;
53040;SDS011;39326;42.650;23.248;2022-10-16T07:06:09;16.23;;;14.63;;
53040;SDS011;39326;42.650;23.248;2022-10-16T07:08:36;14.33;;;12.83;;
53040;SDS011;39326;42.650;23.248;2022-10-16T07:11:07;14.93;;;13.43;;
53040;SDS011;39326;42.650;23.248;2022-10-16T07:13:34;13.63;;;12.43;;
53040;SDS011;39326;42.650;23.248;2022-10-16T07:16:07;13.37;;;12.17;;
53040;SDS011;39326;42.650;23.248;2022-10-16T07:18:38;13.33;;;11.93;;
53040;SDS011;39326;42.650;23.248;2022-10-16T07:23:31;11.17;;;10.10;;
53040;SDS011;39326;42.650;23.248;2022-10-16T07:25:56;11.30;;;10.37;;
53040;SDS011;39326;42.650;23.248;2022-10-16T07:28:22;12.83;;;10.97;;
53040;SDS011;39326;42.650;23.248;2022-10-16T07:30:48;13.10;;;11.73;;
53040;SDS011;39326;42.650;23.248;2022-10-16T07:33:13;12.13;;;10.77;;
53040;SDS011;39326;42.650;23.248;2022-10-16T07:35:47;11.93;;;10.20;;
53040;SDS011;39326;42.650;23.248;2022-10-16T07:38:16;10.73;;;9.73;;
53040;SDS011;39326;42.650;23.248;2022-10-16T07:40:42;10.57;;;9.57;;
53040;SDS011;39326;42.650;23.248;2022-10-16T07:43:08;10.77;;;9.40;;
53040;SDS011;39326;42.650;23.248;2022-10-16T07:45:33;10.43;;;9.50;;
53040;SDS011;39326;42.650;23.248;2022-10-16T07:47:59;9.57;;;8.63;;
53040;SDS011;39326;42.650;23.248;2022-10-16T07:50:25;10.13;;;9.07;;
53040;SDS011;39326;42.650;23.248;2022-10-16T07:52:50;10.53;;;9.53;;
53040;SDS011;39326;42.650;23.248;2022-10-16T07:55:16;9.37;;;8.40;;
53040;SDS011;39326;42.650;23.248;2022-10-16T07:57:44;9.07;;;8.27;;
53040;SDS011;39326;42.650;23.248;2022-10-16T08:00:10;9.30;;;8.40;;
53040;SDS011;39326;42.650;23.248;2022-10-16T08:02:41;8.90;;;8.10;;
53040;SDS011;39326;42.650;23.248;2022-10-16T08:05:07;8.87;;;8.07;;
53040;SDS011;39326;42.650;23.248;2022-10-16T08:07:33;10.50;;;8.53;;
53040;SDS011;39326;42.650;23.248;2022-10-16T08:09:58;8.03;;;7.33;;
53040;SDS011;39326;42.650;23.248;2022-10-16T08:12:24;8.63;;;7.57;;
53040;SDS011;39326;42.650;23.248;2022-10-16T08:14:50;9.07;;;7.07;;
53040;SDS011;39326;42.650;23.248;2022-10-16T08:17:16;8.00;;;7.23;;
53040;SDS011;39326;42.650;23.248;2022-10-16T08:19:45;8.37;;;7.73;;
53040;SDS011;39326;42.650;23.248;2022-10-16T08:22:11;8.07;;;7.27;;
53040;SDS011;39326;42.650;23.248;2022-10-16T08:24:37;8.03;;;7.13;;
53040;SDS011;39326;42.650;23.248;2022-10-16T08:27:02;8.47;;;7.67;;
53040;SDS011;39326;42.650;23.248;2022-10-16T08:29:28;8.00;;;7.40;;
53040;SDS011;39326;42.650;23.248;2022-10-16T08:31:54;8.77;;;7.87;;
53040;SDS011;39326;42.650;23.248;2022-10-16T08:34:19;8.67;;;7.87;;
53040;SDS011;39326;42.650;23.248;2022-10-16T08:36:45;9.00;;;8.10;;
53040;SDS011;39326;42.650;23.248;2022-10-16T08:39:10;8.33;;;7.53;;
53040;SDS011;39326;42.650;23.248;2022-10-16T08:47:35;9.50;;;8.60;;
53040;SDS011;39326;42.650;23.248;2022-10-16T08:50:13;10.40;;;8.50;;
53040;SDS011;39326;42.650;23.248;2022-10-16T08:52:45;11.77;;;8.63;;
53040;SDS011;39326;42.650;23.248;2022-10-16T08:58:16;8.63;;;7.83;;
53040;SDS011;39326;42.650;23.248;2022-10-16T09:00:43;7.77;;;7.07;;
53040;SDS011;39326;42.650;23.248;2022-10-16T09:23:00;4.50;;;4.03;;
53040;SDS011;39326;42.650;23.248;2022-10-16T09:25:39;5.50;;;3.83;;
53040;SDS011;39326;42.650;23.248;2022-10-16T09:28:08;4.27;;;3.87;;
53040;SDS011;39326;42.650;23.248;2022-10-16T09:30:35;4.05;;;3.58;;
53040;SDS011;39326;42.650;23.248;2022-10-16T09:33:01;4.23;;;3.50;;
53040;SDS011;39326;42.650;23.248;2022-10-16T09:35:31;5.00;;;3.43;;
53040;SDS011;39326;42.650;23.248;2022-10-16T09:38:01;3.60;;;3.30;;
53040;SDS011;39326;42.650;23.248;2022-10-16T09:40:34;3.50;;;3.20;;
53040;SDS011;39326;42.650;23.248;2022-10-16T09:45:54;3.83;;;3.30;;
53040;SDS011;39326;42.650;23.248;2022-10-16T09:48:21;3.87;;;3.50;;
53040;SDS011;39326;42.650;23.248;2022-10-16T09:50:56;4.20;;;3.80;;
53040;SDS011;39326;42.650;23.248;2022-10-16T09:53:41;6.40;;;3.70;;
53040;SDS011;39326;42.650;23.248;2022-10-16T09:56:09;4.03;;;3.63;;
53040;SDS011;39326;42.650;23.248;2022-10-16T09:58:41;3.88;;;3.47;;
53040;SDS011;39326;42.650;23.248;2022-10-16T10:01:13;3.80;;;3.50;;
53040;SDS011;39326;42.650;23.248;2022-10-16T10:03:41;3.55;;;3.20;;
53040;SDS011;39326;42.650;23.248;2022-10-16T10:06:16;3.53;;;3.20;;
53040;SDS011;39326;42.650;23.248;2022-10-16T10:14:06;3.50;;;3.20;;
53040;SDS011;39326;42.650;23.248;2022-10-16T10:16:40;5.45;;;4.10;;
53040;SDS011;39326;42.650;23.248;2022-10-16T10:19:09;4.70;;;3.08;;
53040;SDS011;39326;42.650;23.248;2022-10-16T10:21:40;4.85;;;3.67;;
53040;SDS011;39326;42.650;23.248;2022-10-16T10:24:09;3.80;;;3.40;;
53040;SDS011;39326;42.650;23.248;2022-10-16T10:26:36;4.03;;;3.33;;
53040;SDS011;39326;42.650;23.248;2022-10-16T10:37:01;4.05;;;3.10;;
53040;SDS011;39326;42.650;23.248;2022-10-16T10:39:50;4.20;;;3.80;;
53040;SDS011;39326;42.650;23.248;2022-10-16T10:42:36;4.65;;;3.67;;
53040;SDS011;39326;42.650;23.248;2022-10-16T10:47:58;3.92;;;3.55;;
53040;SDS011;39326;42.650;23.248;2022-10-16T10:50:45;3.53;;;3.22;;
53040;SDS011;39326;42.650;23.248;2022-10-16T11:07:25;4.60;;;3.38;;
53040;SDS011;39326;42.650;23.248;2022-10-16T11:09:59;3.88;;;3.58;;
53040;SDS011;39326;42.650;23.248;2022-10-16T11:12:39;3.03;;;2.72;;
53040;SDS011;39326;42.650;23.248;2022-10-16T11:15:18;3.40;;;3.10;;
53040;SDS011;39326;42.650;23.248;2022-10-16T11:18:11;3.17;;;2.85;;
53040;SDS011;39326;42.650;23.248;2022-10-16T11:20:43;3.75;;;2.90;;
53040;SDS011;39326;42.650;23.248;2022-10-16T11:23:15;3.30;;;3.00;;
53040;SDS011;39326;42.650;23.248;2022-10-16T11:25:48;3.38;;;3.08;;
53040;SDS011;39326;42.650;23.248;2022-10-16T11:30:57;3.30;;;2.70;;
53040;SDS011;39326;42.650;23.248;2022-10-16T11:36:19;3.30;;;3.00;;
53040;SDS011;39326;42.650;23.248;2022-10-16T11:41:27;3.30;;;3.00;;
53040;SDS011;39326;42.650;23.248;2022-10-16T11:46:35;3.88;;;3.55;;
53040;SDS011;39326;42.650;23.248;2022-10-16T11:49:22;3.53;;;3.22;;
53040;SDS011;39326;42.650;23.248;2022-10-16T11:57:22;3.40;;;3.13;;
53040;SDS011;39326;42.650;23.248;2022-10-16T11:59:53;4.25;;;3.20;;
53040;SDS011;39326;42.650;23.248;2022-10-16T12:05:14;2.65;;;2.45;;
53040;SDS011;39326;42.650;23.248;2022-10-16T12:07:57;3.65;;;2.50;;
53040;SDS011;39326;42.650;23.248;2022-10-16T12:10:31;2.90;;;2.60;;
53040;SDS011;39326;42.650;23.248;2022-10-16T12:13:02;3.17;;;2.60;;
53040;SDS011;39326;42.650;23.248;2022-10-16T12:15:31;4.32;;;2.30;;
53040;SDS011;39326;42.650;23.248;2022-10-16T12:17:58;3.30;;;2.20;;
53040;SDS011;39326;42.650;23.248;2022-10-16T12:20:32;2.30;;;2.10;;
53040;SDS011;39326;42.650;23.248;2022-10-16T12:23:02;3.22;;;2.25;;
53040;SDS011;39326;42.650;23.248;2022-10-16T12:25:31;2.72;;;2.17;;
53040;SDS011;39326;42.650;23.248;2022-10-16T12:30:57;2.28;;;2.08;;
53040;SDS011;39326;42.650;23.248;2022-10-16T12:35:59;2.97;;;2.33;;
53040;SDS011;39326;42.650;23.248;2022-10-16T12:38:28;2.55;;;2.35;;
53040;SDS011;39326;42.650;23.248;2022-10-16T12:41:04;2.90;;;2.58;;
53040;SDS011;39326;42.650;23.248;2022-10-16T12:43:37;2.30;;;2.00;;
53040;SDS011;39326;42.650;23.248;2022-10-16T12:46:05;2.28;;;2.08;;
53040;SDS011;39326;42.650;23.248;2022-10-16T12:48:35;2.97;;;1.90;;
53040;SDS011;39326;42.650;23.248;2022-10-16T12:54:18;4.10;;;2.83;;
53040;SDS011;39326;42.650;23.248;2022-10-16T12:59:58;2.67;;;2.38;;
53040;SDS011;39326;42.650;23.248;2022-10-16T13:19:29;3.13;;;2.70;;
53040;SDS011;39326;42.650;23.248;2022-10-16T13:29:32;4.28;;;2.92;;
53040;SDS011;39326;42.650;23.248;2022-10-16T13:31:59;4.95;;;3.33;;
53040;SDS011;39326;42.650;23.248;2022-10-16T13:34:32;4.15;;;2.58;;
53040;SDS011;39326;42.650;23.248;2022-10-16T13:36:57;6.95;;;2.72;;
53040;SDS011;39326;42.650;23.248;2022-10-16T13:39:27;3.22;;;2.83;;
53040;SDS011;39326;42.650;23.248;2022-10-16T13:42:00;4.10;;;2.67;;
53040;SDS011;39326;42.650;23.248;2022-10-16T13:44:27;3.65;;;2.67;;
53040;SDS011;39326;42.650;23.248;2022-10-16T13:47:00;2.70;;;2.50;;
53040;SDS011;39326;42.650;23.248;2022-10-16T13:49:26;2.80;;;2.55;;
53040;SDS011;39326;42.650;23.248;2022-10-16T13:51:56;4.60;;;3.90;;
53040;SDS011;39326;42.650;23.248;2022-10-16T13:54:23;3.25;;;2.95;;
53040;SDS011;39326;42.650;23.248;2022-10-16T13:56:51;3.38;;;3.08;;
53040;SDS011;39326;42.650;23.248;2022-10-16T13:59:23;4.07;;;3.33;;
53040;SDS011;39326;42.650;23.248;2022-10-16T14:01:52;4.00;;;3.70;;
53040;SDS011;39326;42.650;23.248;2022-10-16T14:04:21;4.35;;;3.92;;
53040;SDS011;39326;42.650;23.248;2022-10-16T14:06:49;6.27;;;3.67;;
53040;SDS011;39326;42.650;23.248;2022-10-16T14:09:25;3.75;;;3.38;;
53040;SDS011;39326;42.650;23.248;2022-10-16T14:12:03;3.75;;;3.05;;
53040;SDS011;39326;42.650;23.248;2022-10-16T14:14:39;2.70;;;2.50;;
53040;SDS011;39326;42.650;23.248;2022-10-16T14:17:29;4.57;;;3.20;;
53040;SDS011;39326;42.650;23.248;2022-10-16T14:19:59;3.53;;;2.80;;
53040;SDS011;39326;42.650;23.248;2022-10-16T14:22:33;3.93;;;2.77;;
53040;SDS011;39326;42.650;23.248;2022-10-16T14:25:18;4.15;;;3.00;;
53040;SDS011;39326;42.650;23.248;2022-10-16T14:28:14;5.38;;;2.85;;
53040;SDS011;39326;42.650;23.248;2022-10-16T14:33:31;3.73;;;2.90;;
53040;SDS011;39326;42.650;23.248;2022-10-16T14:36:00;3.43;;;3.10;;
53040;SDS011;39326;42.650;23.248;2022-10-16T14:38:27;4.00;;;3.00;;
53040;SDS011;39326;42.650;23.248;2022-10-16T14:40:53;4.30;;;3.00;;
53040;SDS011;39326;42.650;23.248;2022-10-16T14:43:22;3.67;;;2.93;;
53040;SDS011;39326;42.650;23.248;2022-10-16T14:45:55;4.17;;;2.90;;
53040;SDS011;39326;42.650;23.248;2022-10-16T14:48:22;3.63;;;3.33;;
53040;SDS011;39326;42.650;23.248;2022-10-16T14:50:49;4.70;;;3.10;;
53040;SDS011;39326;42.650;23.248;2022-10-16T14:53:15;3.93;;;3.10;;
53040;SDS011;39326;42.650;23.248;2022-10-16T14:55:41;3.30;;;2.97;;
53040;SDS011;39326;42.650;23.248;2022-10-16T14:58:10;3.27;;;3.00;;
53040;SDS011;39326;42.650;23.248;2022-10-16T15:00:48;19.13;;;4.73;;
53040;SDS011;39326;42.650;23.248;2022-10-16T15:03:14;5.23;;;4.53;;
53040;SDS011;39326;42.650;23.248;2022-10-16T15:05:40;4.90;;;4.20;;
53040;SDS011;39326;42.650;23.248;2022-10-16T15:08:06;4.40;;;4.00;;
53040;SDS011;39326;42.650;23.248;2022-10-16T15:10:33;4.77;;;3.90;;
53040;SDS011;39326;42.650;23.248;2022-10-16T15:13:03;4.07;;;3.67;;
53040;SDS011;39326;42.650;23.248;2022-10-16T15:15:32;6.33;;;4.70;;
53040;SDS011;39326;42.650;23.248;2022-10-16T15:18:00;4.57;;;3.95;;
53040;SDS011;39326;42.650;23.248;2022-10-16T15:20:28;5.20;;;4.10;;
53040;SDS011;39326;42.650;23.248;2022-10-16T15:22:59;7.00;;;5.03;;
53040;SDS011;39326;42.650;23.248;2022-10-16T15:25:39;6.23;;;3.53;;
53040;SDS011;39326;42.650;23.248;2022-10-16T15:28:08;4.80;;;3.53;;
53040;SDS011;39326;42.650;23.248;2022-10-16T15:30:34;5.10;;;3.60;;
53040;SDS011;39326;42.650;23.248;2022-10-16T15:33:01;3.53;;;3.23;;
53040;SDS011;39326;42.650;23.248;2022-10-16T15:35:27;4.53;;;3.20;;
53040;SDS011;39326;42.650;23.248;2022-10-16T15:37:54;3.67;;;3.10;;
53040;SDS011;39326;42.650;23.248;2022-10-16T15:40:19;5.20;;;3.90;;
53040;SDS011;39326;42.650;23.248;2022-10-16T15:42:46;4.13;;;3.07;;
53040;SDS011;39326;42.650;23.248;2022-10-16T15:45:13;6.23;;;4.63;;
53040;SDS011;39326;42.650;23.248;2022-10-16T15:47:40;6.00;;;3.87;;
53040;SDS011;39326;42.650;23.248;2022-10-16T15:50:07;4.27;;;3.87;;
53040;SDS011;39326;42.650;23.248;2022-10-16T15:52:36;3.43;;;3.13;;
53040;SDS011;39326;42.650;23.248;2022-10-16T15:55:02;4.93;;;3.87;;
53040;SDS011;39326;42.650;23.248;2022-10-16T15:57:28;4.03;;;3.63;;
53040;SDS011;39326;42.650;23.248;2022-10-16T15:59:54;4.27;;;3.37;;
53040;SDS011;39326;42.650;23.248;2022-10-16T16:02:21;11.13;;;4.03;;
53040;SDS011;39326;42.650;23.248;2022-10-16T16:04:46;5.13;;;3.27;;
53040;SDS011;39326;42.650;23.248;2022-10-16T16:07:12;5.83;;;3.47;;
53040;SDS011;39326;42.650;23.248;2022-10-16T16:09:38;3.77;;;3.40;;
53040;SDS011;39326;42.650;23.248;2022-10-16T16:12:04;4.40;;;3.33;;
53040;SDS011;39326;42.650;23.248;2022-10-16T16:14:30;3.50;;;3.20;;
53040;SDS011;39326;42.650;23.248;2022-10-16T16:16:56;4.80;;;3.07;;
53040;SDS011;39326;42.650;23.248;2022-10-16T16:19:24;6.50;;;3.77;;
53040;SDS011;39326;42.650;23.248;2022-10-16T16:21:50;5.00;;;3.57;;
53040;SDS011;39326;42.650;23.248;2022-10-16T16:24:16;3.60;;;3.03;;
53040;SDS011;39326;42.650;23.248;2022-10-16T16:26:42;5.83;;;3.13;;
53040;SDS011;39326;42.650;23.248;2022-10-16T16:29:12;7.07;;;3.57;;
53040;SDS011;39326;42.650;23.248;2022-10-16T16:31:38;3.10;;;2.80;;
53040;SDS011;39326;42.650;23.248;2022-10-16T16:34:05;5.27;;;3.20;;
53040;SDS011;39326;42.650;23.248;2022-10-16T16:36:31;3.83;;;3.43;;
53040;SDS011;39326;42.650;23.248;2022-10-16T16:38:57;3.73;;;3.37;;
53040;SDS011;39326;42.650;23.248;2022-10-16T16:41:24;3.27;;;3.00;;
53040;SDS011;39326;42.650;23.248;2022-10-16T16:43:55;3.73;;;3.10;;
53040;SDS011;39326;42.650;23.248;2022-10-16T16:46:26;5.20;;;3.67;;
53040;SDS011;39326;42.650;23.248;2022-10-16T16:48:52;3.33;;;3.00;;
53040;SDS011;39326;42.650;23.248;2022-10-16T16:51:20;4.23;;;3.77;;
53040;SDS011;39326;42.650;23.248;2022-10-16T16:53:50;4.67;;;3.23;;
53040;SDS011;39326;42.650;23.248;2022-10-16T16:56:17;4.47;;;3.60;;